Time;durP1;ratioP1;P1;durP2;ratioP2;P2;SDS_P1;SDS_P2;PMS_P1;PMS_P2;Temp;Humidity;BMP_temperature;BMP_pressure;BME280_temperature;BME280_humidity;BME280_pressure;Samples;Min_cycle;Max_cycle;Signal;HPM_P1;HPM_P2
2022/06/22 00:01:27;;;;;;;8.38;7.15;;;;;;;23.85;51.17;94577.59;5058477;28;20236;-68
2022/06/22 00:03:57;;;;;;;8.80;7.63;;;;;;;23.76;51.61;94571.84;5049189;28;20237;-66
2022/06/22 00:06:29;;;;;;;7.55;6.85;;;;;;;23.74;51.66;94578.50;5051745;28;20252;-67
2022/06/22 00:08:55;;;;;;;9.93;7.13;;;;;;;23.84;51.45;94578.63;5051382;28;20229;-63
2022/06/22 00:11:21;;;;;;;8.98;7.22;;;;;;;23.84;51.25;94573.25;5059778;28;20223;-68
2022/06/22 00:13:53;;;;;;;8.30;6.85;;;;;;;23.75;51.50;94578.25;5053174;28;20315;-67
2022/06/22 00:16:27;;;;;;;8.93;7.70;;;;;;;23.55;51.87;94578.72;5056207;28;20200;-64
2022/06/22 00:18:54;;;;;;;8.57;7.65;;;;;;;23.29;52.62;94598.09;5056928;28;20288;-67
2022/06/22 00:21:32;;;;;;;8.95;8.10;;;;;;;23.32;52.63;94594.94;5058049;28;20220;-67
2022/06/22 00:24:01;;;;;;;8.55;7.68;;;;;;;23.41;52.19;94600.72;5059537;28;20221;-66
2022/06/22 00:26:36;;;;;;;8.55;7.57;;;;;;;23.10;52.77;94594.81;5063184;28;20247;-66
2022/06/22 00:29:16;;;;;;;9.60;8.40;;;;;;;23.19;52.76;94593.34;5060110;28;20600;-67
2022/06/22 00:31:42;;;;;;;11.80;7.63;;;;;;;23.40;52.19;94591.84;5058224;28;20208;-63
2022/06/22 00:34:11;;;;;;;8.65;7.72;;;;;;;23.49;51.44;94578.84;5057159;28;20204;-66
2022/06/22 00:37:03;;;;;;;8.77;7.90;;;;;;;23.51;51.62;94582.91;5052622;28;20229;-66
2022/06/22 00:39:28;;;;;;;9.27;8.48;;;;;;;23.52;51.54;94583.72;5070537;28;20221;-66
2022/06/22 00:42:15;;;;;;;9.13;8.20;;;;;;;23.56;51.44;94579.50;5060827;28;20224;-65
2022/06/22 00:45:01;;;;;;;11.43;8.55;;;;;;;23.56;51.51;94576.84;5050048;28;20761;-66
2022/06/22 00:47:30;;;;;;;8.45;7.70;;;;;;;23.51;51.81;94582.09;5069422;27;20312;-62
2022/06/22 00:50:21;;;;;;;9.23;8.30;;;;;;;23.51;51.64;94576.75;5052460;28;20238;-66
2022/06/22 00:52:53;;;;;;;9.23;8.40;;;;;;;23.40;51.76;94570.41;5056452;28;20217;-66
2022/06/22 00:55:27;;;;;;;8.80;7.90;;;;;;;23.27;52.44;94598.34;5070810;28;20228;-65
2022/06/22 00:58:17;;;;;;;9.23;8.27;;;;;;;23.31;52.42;94587.94;5054302;28;20247;-66
2022/06/22 01:00:58;;;;;;;12.65;7.75;;;;;;;23.54;52.03;94585.13;5030863;28;20226;-64
2022/06/22 01:03:43;;;;;;;9.65;8.65;;;;;;;23.51;51.51;94574.06;5013977;28;20222;-65
2022/06/22 01:06:14;;;;;;;8.32;7.50;;;;;;;23.47;52.26;94580.94;5016517;28;20225;-65
2022/06/22 01:08:56;;;;;;;10.43;8.27;;;;;;;23.61;51.48;94579.59;5021419;28;20316;-66
2022/06/22 01:14:57;;;;;;;9.73;8.80;;;;;;;23.59;51.87;94575.53;4940363;28;20252;-64
2022/06/22 01:17:30;;;;;;;11.77;8.32;;;;;;;23.56;51.89;94572.28;4940347;28;20236;-69
2022/06/22 01:20:05;;;;;;;9.85;8.70;;;;;;;23.52;52.08;94571.16;4919819;29;20218;-64
2022/06/22 01:22:53;;;;;;;12.00;8.95;;;;;;;23.56;51.89;94574.16;4944720;28;20209;-67
2022/06/22 01:25:57;;;;;;;8.77;7.97;;;;;;;23.49;52.04;94568.91;4900331;29;20241;-65
2022/06/22 01:28:25;;;;;;;9.10;8.20;;;;;;;23.61;52.01;94565.38;4899462;29;20225;-68
2022/06/22 01:30:55;;;;;;;9.40;8.55;;;;;;;23.53;52.27;94564.72;4904106;29;20290;-67
2022/06/22 01:33:36;;;;;;;8.93;8.02;;;;;;;23.52;52.57;94565.78;4905457;29;20229;-66
2022/06/22 01:36:08;;;;;;;9.25;8.30;;;;;;;23.50;52.31;94565.19;4898865;29;20230;-67
2022/06/22 01:38:37;;;;;;;10.20;8.45;;;;;;;23.45;52.40;94561.63;4902245;29;20278;-67
2022/06/22 01:41:09;;;;;;;9.70;8.77;;;;;;;23.43;52.46;94558.38;4889487;29;20238;-68
2022/06/22 01:43:39;;;;;;;9.90;8.48;;;;;;;23.41;52.48;94555.91;4900638;29;20230;-67
2022/06/22 01:46:22;;;;;;;9.40;8.50;;;;;;;23.39;52.71;94558.03;4902326;29;20790;-68
2022/06/22 01:49:00;;;;;;;9.45;8.45;;;;;;;23.46;52.63;94547.13;4901342;29;20240;-63
2022/06/22 01:51:29;;;;;;;9.60;8.70;;;;;;;23.38;53.07;94540.31;4917476;28;20246;-68
2022/06/22 01:54:05;;;;;;;9.82;8.93;;;;;;;23.32;53.40;94541.28;4950496;28;21235;-65
2022/06/22 01:56:39;;;;;;;11.73;8.98;;;;;;;23.25;53.61;94541.41;4972691;28;20282;-68
2022/06/22 01:59:29;;;;;;;10.85;9.48;;;;;;;23.19;53.69;94552.31;4956696;28;20327;-67
2022/06/22 02:02:35;;;;;;;11.18;9.48;;;;;;;23.08;54.07;94554.00;4985494;28;20216;-65
2022/06/22 02:05:04;;;;;;;10.73;8.68;;;;;;;23.03;54.12;94548.53;5022309;28;20225;-67
2022/06/22 02:07:48;;;;;;;10.10;9.10;;;;;;;23.08;53.92;94548.66;5042350;28;20201;-67
2022/06/22 02:10:36;;;;;;;10.27;9.10;;;;;;;23.29;53.31;94545.25;5044276;28;20224;-67
2022/06/22 02:13:21;;;;;;;9.35;8.45;;;;;;;23.24;53.66;94544.38;5040834;28;20232;-68
2022/06/22 02:15:55;;;;;;;11.98;8.38;;;;;;;23.05;54.10;94547.25;5038572;28;20319;-69
2022/06/22 02:18:36;;;;;;;9.13;8.23;;;;;;;23.11;54.13;94540.91;5054025;28;20423;-63
2022/06/22 02:21:21;;;;;;;11.25;10.07;;;;;;;23.21;53.75;94534.13;5022638;28;20327;-66
2022/06/22 02:23:56;;;;;;;9.70;8.70;;;;;;;23.20;53.68;94533.31;5019989;28;20221;-65
2022/06/22 02:26:32;;;;;;;10.57;9.50;;;;;;;23.22;53.64;94533.06;5027635;28;20224;-64
2022/06/22 02:28:57;;;;;;;10.77;9.77;;;;;;;22.85;55.10;94539.63;5025677;28;20231;-66
2022/06/22 02:31:23;;;;;;;9.73;8.73;;;;;;;22.85;55.09;94544.16;5024597;28;20220;-63
2022/06/22 02:33:53;;;;;;;10.75;9.68;;;;;;;22.88;55.58;94547.19;5023685;28;20225;-68
2022/06/22 02:36:20;;;;;;;10.02;9.02;;;;;;;22.80;55.84;94546.75;5038623;28;20233;-67
2022/06/22 02:38:48;;;;;;;10.75;9.65;;;;;;;22.80;55.58;94552.09;5036231;28;20243;-67
2022/06/22 02:46:45;;;;;;;14.07;9.38;;;;;;;22.81;56.13;94545.72;5057188;28;20250;-65
2022/06/22 02:49:26;;;;;;;12.13;9.93;;;;;;;22.76;55.73;94537.56;5057662;28;20206;-69
2022/06/22 02:51:53;;;;;;;11.50;10.00;;;;;;;22.67;56.07;94532.59;5054378;28;20224;-64
2022/06/22 02:54:43;;;;;;;12.13;10.93;;;;;;;22.74;56.34;94545.03;5049588;28;20339;-69
2022/06/22 02:57:14;;;;;;;10.95;9.68;;;;;;;22.77;55.96;94545.34;5055056;28;20229;-68
2022/06/22 02:59:40;;;;;;;11.00;9.85;;;;;;;22.75;56.27;94554.69;5056571;28;20259;-66
2022/06/22 03:02:07;;;;;;;11.00;9.93;;;;;;;22.75;56.13;94552.00;5056258;28;20240;-66
2022/06/22 03:04:32;;;;;;;11.25;9.95;;;;;;;22.71;56.29;94551.69;5061822;28;20208;-64
2022/06/22 03:06:59;;;;;;;10.95;9.95;;;;;;;22.67;56.75;94555.91;5061456;28;20221;-66
2022/06/22 03:09:27;;;;;;;12.95;11.07;;;;;;;22.70;56.28;94552.75;5055600;28;20232;-67
2022/06/22 03:11:59;;;;;;;11.60;10.68;;;;;;;22.71;56.22;94550.88;5063175;28;20221;-64
2022/06/22 03:14:30;;;;;;;12.75;11.20;;;;;;;22.65;56.56;94549.97;5057816;28;20527;-65
2022/06/22 03:17:06;;;;;;;11.98;10.95;;;;;;;22.64;56.25;94551.00;5053701;28;20607;-68
2022/06/22 03:19:35;;;;;;;16.08;11.32;;;;;;;22.60;56.78;94555.22;5055885;28;20184;-68
2022/06/22 03:22:01;;;;;;;14.52;10.65;;;;;;;22.43;57.43;94545.25;5059615;28;20361;-64
2022/06/22 03:24:47;;;;;;;14.25;10.73;;;;;;;22.53;57.00;94554.53;5070971;28;20209;-63
2022/06/22 03:27:24;;;;;;;12.65;11.40;;;;;;;22.60;57.24;94550.66;5061569;28;20285;-66
2022/06/22 03:29:54;;;;;;;12.50;11.30;;;;;;;22.60;57.05;94550.66;5055662;28;20520;-64
2022/06/22 03:32:49;;;;;;;11.38;10.38;;;;;;;22.64;56.90;94549.16;5060445;28;20436;-67
2022/06/22 03:35:18;;;;;;;12.65;11.48;;;;;;;22.66;56.80;94544.34;5025953;28;20229;-65
2022/06/22 03:37:51;;;;;;;13.30;11.50;;;;;;;22.71;56.76;94540.94;5041072;28;20336;-68
2022/06/22 03:40:25;;;;;;;13.38;12.00;;;;;;;22.73;56.77;94543.41;5024200;28;20214;-64
2022/06/22 03:42:58;;;;;;;12.30;11.10;;;;;;;22.70;57.02;94539.34;5019769;28;20226;-65
2022/06/22 03:45:37;;;;;;;13.52;10.85;;;;;;;22.83;56.55;94555.13;5044240;28;20225;-64
2022/06/22 03:48:15;;;;;;;11.70;10.57;;;;;;;22.77;56.54;94557.94;5024979;28;20235;-63
2022/06/22 03:50:46;;;;;;;15.05;11.18;;;;;;;22.65;57.05;94558.00;5042230;28;20217;-67
2022/06/22 03:53:39;;;;;;;13.93;11.35;;;;;;;22.70;57.13;94551.94;5041330;28;20261;-67
2022/06/22 03:56:10;;;;;;;11.52;10.48;;;;;;;22.71;57.08;94554.34;5021949;28;20312;-67
2022/06/22 03:58:36;;;;;;;12.63;10.93;;;;;;;22.71;56.81;94557.03;5023806;28;20229;-67
2022/06/22 04:01:04;;;;;;;11.88;10.85;;;;;;;22.64;57.51;94572.44;5026590;28;20227;-65
2022/06/22 04:03:29;;;;;;;12.27;11.02;;;;;;;22.65;57.45;94574.88;5040921;28;20232;-68
2022/06/22 04:05:57;;;;;;;13.10;10.85;;;;;;;22.73;57.11;94579.06;5023074;28;20237;-67
2022/06/22 04:08:41;;;;;;;12.70;11.50;;;;;;;22.71;57.28;94575.78;5040271;28;20241;-68
2022/06/22 04:11:06;;;;;;;13.80;11.38;;;;;;;22.79;57.03;94580.78;5024596;28;20300;-67
2022/06/22 04:13:38;;;;;;;14.07;11.30;;;;;;;22.86;56.90;94564.56;5054304;28;20595;-66
2022/06/22 04:16:17;;;;;;;12.95;11.38;;;;;;;22.87;56.83;94572.34;5052979;28;20257;-63
2022/06/22 04:18:54;;;;;;;12.23;11.02;;;;;;;22.66;57.56;94573.00;5051368;28;20221;-65
2022/06/22 04:21:31;;;;;;;13.27;11.35;;;;;;;22.70;57.78;94566.13;5051676;28;20225;-66
2022/06/22 04:24:02;;;;;;;13.13;11.30;;;;;;;23.06;56.49;94559.59;5056791;28;20220;-65
2022/06/22 04:26:36;;;;;;;12.68;10.93;;;;;;;22.99;56.63;94545.53;5057342;28;20259;-64
2022/06/22 04:29:12;;;;;;;13.68;12.27;;;;;;;23.03;56.58;94549.34;5054008;28;20318;-64
2022/06/22 04:31:44;;;;;;;13.50;12.20;;;;;;;23.04;56.76;94559.03;5050813;28;20204;-64
2022/06/22 04:34:18;;;;;;;11.68;10.57;;;;;;;23.02;56.99;94552.28;5056584;28;20244;-64
2022/06/22 04:36:49;;;;;;;14.00;11.30;;;;;;;23.09;56.94;94569.03;5052909;28;20225;-64
2022/06/22 04:39:21;;;;;;;12.73;11.52;;;;;;;23.19;56.91;94569.22;5072144;28;20254;-62
2022/06/22 04:41:48;;;;;;;12.32;10.90;;;;;;;23.27;56.84;94573.38;5059981;28;20221;-64
2022/06/22 04:44:22;;;;;;;12.32;11.13;;;;;;;23.36;56.73;94568.44;5067639;27;20326;-65
2022/06/22 04:46:53;;;;;;;13.07;10.75;;;;;;;23.43;55.86;94569.91;5050076;28;20197;-65
2022/06/22 04:49:28;;;;;;;12.80;10.65;;;;;;;23.47;56.08;94571.06;5066225;28;20209;-64
2022/06/22 04:52:07;;;;;;;12.20;11.00;;;;;;;23.45;56.09;94570.47;5057727;28;20277;-65
2022/06/22 04:54:37;;;;;;;11.73;10.50;;;;;;;23.55;56.12;94577.91;5057839;28;20225;-65
2022/06/22 04:57:14;;;;;;;12.15;10.85;;;;;;;23.60;55.67;94575.28;5059492;28;20220;-65
2022/06/22 04:59:40;;;;;;;11.65;10.50;;;;;;;23.62;55.82;94575.84;5058369;28;20240;-65
2022/06/22 05:02:10;;;;;;;11.73;10.52;;;;;;;23.61;56.03;94578.78;5049019;28;20225;-65
2022/06/22 05:04:42;;;;;;;10.98;9.98;;;;;;;23.70;55.59;94574.63;5052115;28;20197;-64
2022/06/22 05:07:29;;;;;;;11.32;10.27;;;;;;;23.75;55.49;94586.28;5056843;28;20224;-65
2022/06/22 05:10:22;;;;;;;14.00;10.40;;;;;;;23.85;55.04;94592.91;5049428;28;20786;-64
2022/06/22 05:13:11;;;;;;;11.38;10.30;;;;;;;23.84;55.41;94588.56;5061224;28;20206;-67
2022/06/22 05:15:39;;;;;;;13.35;11.02;;;;;;;23.88;55.44;94597.78;5022389;28;20252;-64
2022/06/22 05:18:12;;;;;;;12.75;11.25;;;;;;;23.82;55.49;94588.81;5016971;28;20252;-66
2022/06/22 05:20:48;;;;;;;15.55;10.15;;;;;;;23.99;55.03;94596.88;5023521;28;20296;-65
2022/06/22 05:23:17;;;;;;;11.63;10.52;;;;;;;23.99;55.15;94594.97;5033318;28;20217;-65
2022/06/22 05:25:45;;;;;;;11.68;10.45;;;;;;;24.13;54.54;94583.91;5036174;28;20214;-65
2022/06/22 05:28:17;;;;;;;11.30;10.20;;;;;;;24.15;54.56;94593.34;5039667;28;20221;-65
2022/06/22 05:31:02;;;;;;;11.68;10.48;;;;;;;24.19;54.33;94597.19;5036545;28;20236;-64
2022/06/22 05:33:29;;;;;;;10.25;9.27;;;;;;;24.29;53.61;94591.13;5036893;28;20225;-64
2022/06/22 05:36:10;;;;;;;11.20;10.20;;;;;;;24.28;53.56;94581.44;5034395;28;20228;-64
2022/06/22 05:38:40;;;;;;;11.00;10.00;;;;;;;24.23;54.01;94578.69;5036497;28;20228;-64
2022/06/22 05:41:11;;;;;;;11.70;10.00;;;;;;;24.29;53.68;94579.56;5020402;28;20233;-63
2022/06/22 05:43:39;;;;;;;12.35;10.75;;;;;;;24.38;54.02;94578.91;5017860;28;20278;-63
2022/06/22 05:46:06;;;;;;;10.48;9.48;;;;;;;24.35;53.96;94579.41;5041093;28;20205;-63
2022/06/22 05:48:38;;;;;;;11.68;10.52;;;;;;;24.35;53.80;94579.41;5042030;28;20224;-64
2022/06/22 05:51:29;;;;;;;12.85;9.57;;;;;;;24.49;53.24;94597.88;5049142;28;20243;-64
2022/06/22 05:54:05;;;;;;;11.57;10.45;;;;;;;24.47;53.58;94600.00;5070492;28;20336;-65
2022/06/22 05:56:46;;;;;;;11.98;10.88;;;;;;;24.52;53.39;94597.38;5059996;28;20216;-65
2022/06/22 05:59:23;;;;;;;12.02;10.82;;;;;;;24.56;53.55;94609.25;5053440;28;20230;-65
2022/06/22 06:02:00;;;;;;;12.25;10.85;;;;;;;24.63;52.59;94599.94;5055178;28;20196;-65
2022/06/22 06:05:10;;;;;;;11.48;10.30;;;;;;;24.69;52.71;94602.69;5068011;28;20204;-66
2022/06/22 06:07:42;;;;;;;16.02;10.88;;;;;;;24.72;52.46;94591.44;5064776;28;20302;-64
2022/06/22 06:10:20;;;;;;;12.75;11.45;;;;;;;24.96;52.13;94603.56;5063218;28;20256;-66
2022/06/22 06:13:09;;;;;;;12.57;10.60;;;;;;;24.95;52.42;94603.81;5043630;28;20239;-63
2022/06/22 06:15:38;;;;;;;12.68;11.38;;;;;;;24.92;52.56;94598.94;5069300;28;20237;-62
2022/06/22 06:18:06;;;;;;;12.93;10.82;;;;;;;25.01;51.96;94611.69;5034503;28;20307;-65
2022/06/22 06:20:46;;;;;;;11.60;10.40;;;;;;;24.93;52.86;94608.63;5067987;28;20240;-68
2022/06/22 06:23:27;;;;;;;13.32;11.27;;;;;;;24.97;52.57;94605.19;5036584;28;20260;-64
2022/06/22 06:29:11;;;;;;;12.82;11.63;;;;;;;24.94;52.84;94594.94;5053415;28;20223;-62
2022/06/22 06:31:46;;;;;;;14.15;12.63;;;;;;;25.12;52.85;94596.47;5040862;28;20473;-69
2022/06/22 06:34:19;;;;;;;14.00;11.45;;;;;;;25.07;53.28;94602.63;5034521;28;20286;-64
2022/06/22 06:36:55;;;;;;;11.95;10.85;;;;;;;25.02;53.75;94591.81;5051722;28;20278;-67
2022/06/22 06:39:24;;;;;;;12.18;11.00;;;;;;;24.96;53.70;94587.41;5056762;28;20470;-63
2022/06/22 06:42:06;;;;;;;11.73;10.63;;;;;;;25.02;53.79;94591.81;5052081;28;20232;-66
2022/06/22 06:44:38;;;;;;;12.55;11.43;;;;;;;25.16;53.81;94583.38;5053616;28;20293;-64
2022/06/22 06:47:12;;;;;;;13.07;11.77;;;;;;;25.22;53.33;94585.03;5052077;28;20260;-65
2022/06/22 06:49:44;;;;;;;13.20;12.02;;;;;;;25.20;53.09;94582.59;5044457;28;20213;-67
2022/06/22 06:52:31;;;;;;;14.27;12.95;;;;;;;25.34;52.98;94572.25;5056338;28;20263;-68
2022/06/22 06:55:15;;;;;;;14.00;12.80;;;;;;;25.18;53.31;94578.53;5054308;28;20217;-63
2022/06/22 06:57:50;;;;;;;13.20;11.88;;;;;;;25.29;53.26;94577.59;5055451;28;20233;-63
2022/06/22 07:00:16;;;;;;;14.93;12.63;;;;;;;25.29;53.13;94564.94;5052999;28;20225;-63
2022/06/22 07:02:43;;;;;;;15.68;13.68;;;;;;;25.41;53.27;94567.44;5062818;28;20322;-64
2022/06/22 07:05:15;;;;;;;14.38;12.98;;;;;;;25.45;52.26;94573.16;5067821;28;20228;-63
2022/06/22 07:07:47;;;;;;;14.60;13.45;;;;;;;25.56;52.92;94569.47;5055952;28;20332;-61
2022/06/22 07:10:41;;;;;;;17.35;12.52;;;;;;;25.53;52.99;94572.69;5050828;28;20220;-67
2022/06/22 07:13:14;;;;;;;16.48;14.45;;;;;;;25.49;51.93;94556.22;5052999;28;20234;-64
2022/06/22 07:15:45;;;;;;;15.13;13.63;;;;;;;25.62;51.48;94568.44;5064227;28;20238;-67
2022/06/22 07:18:22;;;;;;;13.40;12.07;;;;;;;25.62;51.35;94559.56;5057539;28;20248;-64
2022/06/22 07:20:54;;;;;;;14.75;13.52;;;;;;;25.66;50.74;94574.13;5066729;27;20259;-60
2022/06/22 07:23:36;;;;;;;15.10;13.57;;;;;;;25.88;50.31;94564.13;5051133;28;20224;-62
2022/06/22 07:26:25;;;;;;;15.38;13.88;;;;;;;26.16;50.28;94575.59;5059646;28;20304;-64
2022/06/22 07:29:17;;;;;;;14.65;12.52;;;;;;;26.22;50.60;94574.56;5057175;28;20228;-63
2022/06/22 07:31:52;;;;;;;15.05;13.63;;;;;;;26.46;50.25;94568.75;5070240;28;20216;-62
2022/06/22 07:34:27;;;;;;;16.00;13.70;;;;;;;26.48;50.47;94567.44;5050585;28;20204;-61
2022/06/22 07:37:01;;;;;;;15.13;13.85;;;;;;;26.69;49.96;94572.97;5053638;28;20243;-64
2022/06/22 07:39:39;;;;;;;15.00;13.55;;;;;;;26.64;49.97;94570.22;5054251;28;20225;-65
2022/06/22 07:42:10;;;;;;;16.10;14.65;;;;;;;26.83;49.36;94569.50;5072635;28;20232;-63
2022/06/22 07:44:36;;;;;;;17.02;15.50;;;;;;;26.87;49.18;94564.41;5071033;28;20216;-61
2022/06/22 07:47:20;;;;;;;18.10;16.30;;;;;;;27.01;49.19;94565.50;5052769;28;20219;-62
2022/06/22 07:49:54;;;;;;;18.90;16.83;;;;;;;26.98;48.65;94568.75;5051938;28;20205;-63
2022/06/22 07:52:40;;;;;;;18.92;17.05;;;;;;;26.92;49.04;94568.97;5057339;28;20215;-65
2022/06/22 07:55:31;;;;;;;19.67;17.73;;;;;;;26.94;49.37;94578.44;5056361;28;20252;-64
2022/06/22 07:58:15;;;;;;;20.70;18.80;;;;;;;27.08;49.08;94588.72;4998125;28;20222;-66
2022/06/22 08:00:44;;;;;;;22.95;20.75;;;;;;;27.06;47.40;94580.91;5017064;28;20230;-66
2022/06/22 08:03:12;;;;;;;23.48;20.60;;;;;;;27.26;46.97;94574.78;5013462;28;20365;-64
2022/06/22 08:05:42;;;;;;;21.88;19.77;;;;;;;27.66;46.29;94574.00;5001274;28;20309;-62
2022/06/22 08:08:16;;;;;;;22.35;20.08;;;;;;;27.85;45.42;94576.22;5002335;28;20296;-67
2022/06/22 08:10:53;;;;;;;22.85;20.70;;;;;;;28.06;45.04;94580.50;5001683;28;20377;-61
2022/06/22 08:13:27;;;;;;;22.23;20.23;;;;;;;28.13;44.81;94578.34;5003098;28;20225;-63
2022/06/22 08:15:59;;;;;;;21.95;19.83;;;;;;;28.33;44.40;94582.09;5003134;28;20226;-63
2022/06/22 08:18:26;;;;;;;21.50;19.45;;;;;;;28.38;44.06;94582.91;4996627;28;20337;-62
2022/06/22 08:20:53;;;;;;;21.02;18.95;;;;;;;28.17;44.70;94577.81;5013893;28;20237;-65
2022/06/22 08:23:27;;;;;;;20.08;18.10;;;;;;;28.12;44.74;94579.44;5003045;28;20226;-66
2022/06/22 08:25:56;;;;;;;18.92;17.10;;;;;;;27.91;43.66;94575.16;5004985;28;20202;-65
2022/06/22 08:28:23;;;;;;;18.98;17.08;;;;;;;27.82;43.97;94576.75;5001190;28;20217;-62
2022/06/22 08:30:52;;;;;;;19.55;17.95;;;;;;;27.64;44.80;94573.50;5014403;28;20230;-66
2022/06/22 08:33:25;;;;;;;18.80;16.92;;;;;;;27.62;45.58;94589.16;5014442;28;20234;-65
2022/06/22 08:35:55;;;;;;;19.33;16.77;;;;;;;27.54;45.36;94576.19;5031225;28;20233;-64
2022/06/22 08:38:31;;;;;;;19.50;17.60;;;;;;;27.48;45.44;94571.84;5037171;28;20276;-65
2022/06/22 08:41:12;;;;;;;18.40;16.55;;;;;;;27.59;44.41;94570.78;5051589;28;20239;-65
2022/06/22 08:44:02;;;;;;;18.65;16.88;;;;;;;27.57;45.40;94574.84;5071898;28;20247;-65
2022/06/22 08:46:54;;;;;;;17.15;15.50;;;;;;;27.71;44.30;94584.81;5070024;28;20204;-64
2022/06/22 08:49:22;;;;;;;17.10;15.43;;;;;;;27.57;44.17;94577.53;5057601;28;20228;-65
2022/06/22 08:52:03;;;;;;;18.10;16.20;;;;;;;27.63;45.01;94577.25;5053179;28;20217;-64
2022/06/22 08:54:56;;;;;;;15.70;14.20;;;;;;;27.59;44.31;94573.47;5051775;28;20656;-65
2022/06/22 08:57:40;;;;;;;15.82;14.27;;;;;;;27.62;44.62;94572.94;5038561;28;20252;-67
2022/06/22 09:00:20;;;;;;;14.07;12.70;;;;;;;27.53;43.43;94557.53;5041277;28;20217;-62
2022/06/22 09:03:08;;;;;;;15.15;13.60;;;;;;;27.58;44.37;94555.63;5045940;28;20299;-63
2022/06/22 09:05:58;;;;;;;14.77;13.18;;;;;;;27.73;43.65;94548.63;5053442;28;20236;-62
2022/06/22 09:08:52;;;;;;;11.95;10.75;;;;;;;27.83;42.25;94549.47;5047207;28;20222;-62
2022/06/22 09:11:30;;;;;;;12.27;11.00;;;;;;;27.81;42.18;94553.53;5038425;28;20229;-62
2022/06/22 09:14:35;;;;;;;11.77;10.57;;;;;;;27.82;42.02;94534.31;5047607;28;20233;-63
2022/06/22 09:17:28;;;;;;;12.85;11.63;;;;;;;27.78;42.82;94537.84;5037087;28;20248;-63
2022/06/22 09:20:33;;;;;;;13.10;11.75;;;;;;;27.76;43.22;94545.41;5059429;28;20208;-62
2022/06/22 09:23:08;;;;;;;13.52;11.90;;;;;;;27.99;42.90;94544.88;5057046;28;20227;-63
2022/06/22 09:25:37;;;;;;;14.20;11.70;;;;;;;28.11;42.77;94536.47;5061963;28;20219;-62
2022/06/22 09:28:24;;;;;;;12.73;10.63;;;;;;;27.96;42.14;94533.78;5069151;28;20655;-62
2022/06/22 09:30:53;;;;;;;12.20;11.15;;;;;;;28.10;42.37;94518.63;5065982;28;20237;-63
2022/06/22 09:33:45;;;;;;;12.15;10.98;;;;;;;28.15;41.80;94522.13;5050395;28;20225;-65
2022/06/22 09:36:19;;;;;;;12.20;10.70;;;;;;;28.24;40.99;94524.28;5048302;28;20217;-63
2022/06/22 09:38:47;;;;;;;15.20;10.13;;;;;;;28.32;40.81;94521.00;5049056;28;20228;-64
2022/06/22 09:41:25;;;;;;;12.65;10.68;;;;;;;28.45;40.37;94498.81;5048817;28;20739;-64
2022/06/22 09:44:17;;;;;;;12.82;9.70;;;;;;;28.72;39.28;94514.66;5049380;28;20338;-64
2022/06/22 09:47:00;;;;;;;9.55;8.65;;;;;;;28.95;38.47;94505.09;5052027;28;20256;-64
2022/06/22 09:49:35;;;;;;;11.05;9.30;;;;;;;28.85;38.57;94507.84;5068383;28;20633;-64
2022/06/22 09:52:03;;;;;;;11.18;9.32;;;;;;;28.87;38.81;94512.94;5054613;28;20220;-64
2022/06/22 09:57:55;;;;;;;9.30;8.40;;;;;;;28.91;38.14;94525.66;5053228;28;20243;-62
2022/06/22 10:00:38;;;;;;;11.05;8.52;;;;;;;28.67;38.28;94514.69;5049044;28;20226;-64
2022/06/22 10:03:39;;;;;;;10.77;7.50;;;;;;;28.73;38.59;94521.69;5051383;28;20237;-65
2022/06/22 10:06:29;;;;;;;10.32;8.00;;;;;;;28.88;38.85;94528.94;5053248;28;20225;-64
2022/06/22 10:09:11;;;;;;;13.45;8.10;;;;;;;29.31;38.64;94537.38;5062768;28;20344;-64
2022/06/22 10:11:54;;;;;;;10.02;9.02;;;;;;;29.58;38.02;94539.59;5060317;28;20232;-64
2022/06/22 10:14:38;;;;;;;10.20;9.20;;;;;;;29.54;38.10;94540.44;5047697;28;20252;-64
2022/06/22 10:17:26;;;;;;;11.82;8.38;;;;;;;29.66;38.14;94546.34;5061023;28;20248;-63
2022/06/22 10:20:20;;;;;;;10.82;9.60;;;;;;;29.98;38.10;94539.59;5052201;28;20604;-63
2022/06/22 10:23:07;;;;;;;9.52;8.55;;;;;;;29.89;38.44;94540.19;5065816;28;20210;-64
2022/06/22 10:25:47;;;;;;;9.88;8.88;;;;;;;30.21;38.01;94544.25;5067925;28;20205;-63
2022/06/22 10:28:12;;;;;;;11.32;9.40;;;;;;;30.45;37.25;94554.34;5050444;28;21159;-63
2022/06/22 10:31:12;;;;;;;10.20;9.20;;;;;;;30.17;37.66;94550.53;5048449;28;20224;-64
2022/06/22 10:34:19;;;;;;;10.93;9.93;;;;;;;30.59;37.44;94551.75;5053681;28;20232;-62
2022/06/22 10:37:02;;;;;;;10.70;9.60;;;;;;;30.38;38.12;94551.97;5004450;28;20226;-62
2022/06/22 10:39:52;;;;;;;13.65;10.45;;;;;;;30.37;37.40;94541.38;5002065;28;20221;-64
2022/06/22 10:45:55;;;;;;;12.48;9.40;;;;;;;29.92;38.15;94543.44;5019336;28;20399;-64
2022/06/22 10:48:41;;;;;;;13.90;9.38;;;;;;;29.99;37.80;94539.31;5020998;28;20236;-64
2022/06/22 10:51:25;;;;;;;11.25;9.18;;;;;;;30.10;37.74;94543.53;5019298;28;20238;-65
2022/06/22 10:54:12;;;;;;;11.57;9.27;;;;;;;30.04;37.67;94543.84;5019076;28;20260;-63
2022/06/22 10:57:02;;;;;;;12.85;9.27;;;;;;;30.33;36.78;94552.81;5001811;28;20227;-65
2022/06/22 11:00:11;;;;;;;10.82;8.90;;;;;;;30.27;36.65;94540.41;4995748;28;20303;-64
2022/06/22 11:02:59;;;;;;;9.93;8.68;;;;;;;30.23;37.27;94539.38;4991566;28;20422;-64
2022/06/22 11:05:43;;;;;;;10.25;9.20;;;;;;;30.33;37.40;94547.38;4987059;28;20223;-65
2022/06/22 11:08:27;;;;;;;13.38;9.82;;;;;;;29.90;38.66;94535.59;5005832;28;20310;-64
2022/06/22 11:11:16;;;;;;;10.27;9.43;;;;;;;30.14;37.99;94526.69;5016255;28;20225;-65
2022/06/22 11:14:06;;;;;;;13.40;9.38;;;;;;;30.57;37.82;94530.31;5025055;28;20223;-65
2022/06/22 11:16:32;;;;;;;9.85;8.57;;;;;;;30.64;37.68;94530.78;5026846;28;20198;-64
2022/06/22 11:19:15;;;;;;;11.43;8.80;;;;;;;31.10;36.80;94549.22;5025978;28;20217;-62
2022/06/22 11:21:52;;;;;;;11.05;8.88;;;;;;;30.49;38.02;94541.81;5023914;28;20269;-65
2022/06/22 11:24:35;;;;;;;11.93;9.05;;;;;;;30.17;38.77;94531.53;5041885;28;20225;-65
2022/06/22 11:33:22;;;;;;;11.88;9.65;;;;;;;29.30;39.85;94549.28;5041046;28;20275;-63
2022/06/22 11:36:12;;;;;;;11.55;9.48;;;;;;;29.28;40.95;94543.34;5024106;28;20366;-63
2022/06/22 11:38:50;;;;;;;11.13;9.65;;;;;;;29.24;41.99;94547.69;5047928;28;20220;-63
2022/06/22 11:41:21;;;;;;;10.63;9.63;;;;;;;29.08;40.34;94554.28;5053562;28;20228;-62
2022/06/22 11:43:55;;;;;;;12.85;9.80;;;;;;;28.96;40.05;94551.91;5035379;28;20202;-64
2022/06/22 11:46:33;;;;;;;11.18;10.15;;;;;;;28.99;39.85;94546.72;5040168;28;20193;-65
2022/06/22 11:49:20;;;;;;;12.32;9.55;;;;;;;29.17;38.95;94552.63;5039615;28;20218;-64
2022/06/22 11:52:04;;;;;;;10.98;9.93;;;;;;;29.50;39.09;94542.91;5053099;28;20249;-64
2022/06/22 11:54:53;;;;;;;11.00;9.80;;;;;;;30.14;38.36;94535.63;5054812;28;20280;-63
2022/06/22 11:57:21;;;;;;;10.55;9.48;;;;;;;30.47;37.82;94541.28;5038732;28;20230;-68
2022/06/22 11:59:55;;;;;;;11.95;10.45;;;;;;;30.41;37.40;94539.72;5040633;28;20213;-67
2022/06/22 12:02:42;;;;;;;11.60;10.50;;;;;;;30.22;37.51;94543.13;5060438;28;20228;-65
2022/06/22 12:05:08;;;;;;;11.63;10.35;;;;;;;30.48;36.53;94542.91;5056492;28;20282;-65
2022/06/22 12:07:55;;;;;;;14.68;10.63;;;;;;;30.54;36.48;94544.47;5062230;28;20193;-67
2022/06/22 12:10:45;;;;;;;11.45;10.27;;;;;;;30.76;37.00;94549.34;5041716;28;20276;-66
2022/06/22 12:13:28;;;;;;;13.98;10.63;;;;;;;31.13;36.48;94553.25;5072982;28;20221;-66
2022/06/22 12:15:56;;;;;;;11.98;10.73;;;;;;;30.73;35.87;94542.59;5060241;28;20249;-68
2022/06/22 12:18:40;;;;;;;13.38;10.95;;;;;;;30.74;36.21;94546.94;5068468;28;20333;-63
2022/06/22 12:21:22;;;;;;;12.45;10.50;;;;;;;30.80;37.05;94541.47;5050398;28;20231;-66
2022/06/22 12:24:12;;;;;;;11.80;10.70;;;;;;;31.16;35.03;94529.03;5050092;28;20274;-65
2022/06/22 12:26:49;;;;;;;14.35;10.38;;;;;;;31.51;34.19;94526.13;5068566;28;20225;-64
2022/06/22 12:29:45;;;;;;;11.35;9.93;;;;;;;31.67;33.61;94543.00;5061137;28;20220;-66
2022/06/22 12:32:21;;;;;;;12.10;10.43;;;;;;;32.07;34.80;94530.66;5044854;28;20251;-68
2022/06/22 12:35:04;;;;;;;13.00;10.32;;;;;;;32.56;33.26;94531.13;5057728;28;20226;-64